Terminal Aerodrome Forecast
Issued by NWS

Home | Current Version | Previous Version | Text Only | Print | Product List | Glossary On
Versions: 1 2 3 4 5 6 7 8 9 10 11 12 13 14 15 16 17 18 19 20 21 22 23 24 25 26 27 28 29 30 31 32
812
FTUS41 KBOX 020520
TAFFMH
TAF
KFMH 020520Z 0206/0306 07006KT 2SM BR OVC003
     FM021100 03006KT 2SM BR VCSH OVC003
     FM021500 05005KT P6SM VCSH OVC008
     FM022000 17004KT P6SM VCSH OVC008
     FM030000 23005KT 1SM BR VCSH OVC003=

USA.gov is the U.S. government's official web portal to all federal, state and local government web resources and services.